createdAt,value
2018-11-23T00:04:07.724Z,20.70
2018-11-23T00:09:10.811Z,22.80
2018-11-23T00:14:13.848Z,22.97
2018-11-23T00:19:16.971Z,22.50
2018-11-23T00:24:20.071Z,21.50
2018-11-23T00:29:23.164Z,21.70
2018-11-23T00:34:26.241Z,22.40
2018-11-23T00:39:29.268Z,22.27
2018-11-23T00:44:32.313Z,22.47
2018-11-23T00:49:35.387Z,20.90
2018-11-23T00:54:38.464Z,19.60
2018-11-23T00:59:41.545Z,23.10
2018-11-23T01:04:44.627Z,20.53
2018-11-23T01:09:47.680Z,20.00
2018-11-23T01:14:50.732Z,21.10
2018-11-23T01:19:53.788Z,22.03
2018-11-23T01:24:56.807Z,21.30
2018-11-23T01:29:59.851Z,20.67
2018-11-23T01:35:02.977Z,21.03
2018-11-23T01:40:08.319Z,20.57
2018-11-23T01:45:12.049Z,20.60
2018-11-23T01:50:18.709Z,19.00
2018-11-23T01:55:22.546Z,20.67
2018-11-23T02:00:26.745Z,21.27
2018-11-23T02:05:29.778Z,18.97
2018-11-23T02:10:32.848Z,20.17
2018-11-23T02:15:36.743Z,18.60
2018-11-23T02:20:39.747Z,19.17
2018-11-23T02:25:42.740Z,20.20
2018-11-23T02:30:46.444Z,19.87
2018-11-23T02:35:49.495Z,18.07
2018-11-23T02:40:52.607Z,19.70
2018-11-23T02:45:55.718Z,18.07
2018-11-23T02:50:58.748Z,19.20
2018-11-23T02:56:01.837Z,19.40
2018-11-23T03:01:05.003Z,19.10
2018-11-23T03:06:08.102Z,18.57
2018-11-23T03:11:11.140Z,17.40
2018-11-23T03:16:14.268Z,18.90
2018-11-23T03:21:17.287Z,19.07
2018-11-23T03:26:20.433Z,19.97
2018-11-23T03:31:24.740Z,18.30
2018-11-23T03:36:27.794Z,18.83
2018-11-23T03:41:30.848Z,16.27
2018-11-23T03:46:33.920Z,17.80
2018-11-23T03:51:36.948Z,18.57
2018-11-23T03:56:39.987Z,17.40
2018-11-23T04:01:43.023Z,17.37
2018-11-23T04:06:46.047Z,18.17
2018-11-23T04:11:49.149Z,18.07
2018-11-23T04:16:52.393Z,17.90
2018-11-23T04:21:55.499Z,20.00
2018-11-23T04:26:59.803Z,19.53
2018-11-23T04:32:02.853Z,19.67
2018-11-23T04:37:05.972Z,19.00
2018-11-23T04:42:09.035Z,18.77
2018-11-23T04:47:12.154Z,20.00
2018-11-23T04:52:15.159Z,18.27
2018-11-23T04:57:18.235Z,19.43
2018-11-23T05:02:21.335Z,16.90
2018-11-23T05:07:24.407Z,19.23
2018-11-23T05:12:27.631Z,19.77
2018-11-23T05:17:30.843Z,18.83
2018-11-23T05:22:34.353Z,17.43
2018-11-23T05:27:37.870Z,18.73
2018-11-23T05:32:41.767Z,18.97
2018-11-23T05:37:45.102Z,19.43
2018-11-23T05:42:48.286Z,16.70
2018-11-23T05:47:51.439Z,18.40
2018-11-23T05:52:55.076Z,18.80
2018-11-23T05:57:58.290Z,20.33
2018-11-23T06:03:01.517Z,19.20
2018-11-23T06:08:04.684Z,19.17
2018-11-23T06:13:07.871Z,17.30
2018-11-23T06:18:11.072Z,18.60
2018-11-23T06:23:15.664Z,20.27
2018-11-23T06:28:19.319Z,17.50
2018-11-23T06:33:41.255Z,17.47
2018-11-23T06:38:44.524Z,19.33
2018-11-23T06:43:47.685Z,18.50
2018-11-23T06:48:50.944Z,19.43
2018-11-23T06:53:54.258Z,19.17
2018-11-23T06:58:57.426Z,18.47
2018-11-23T07:04:00.605Z,18.00
2018-11-23T07:09:06.448Z,18.27
2018-11-23T07:14:09.662Z,18.13
2018-11-23T07:19:13.060Z,18.67
2018-11-23T07:24:17.146Z,17.73
2018-11-23T07:29:20.328Z,18.83
2018-11-23T07:34:24.097Z,19.00
2018-11-23T07:39:44.266Z,19.10
2018-11-23T07:44:47.469Z,17.13
2018-11-23T07:49:51.525Z,19.30
2018-11-23T07:54:55.558Z,19.20
2018-11-23T07:59:58.830Z,18.27
2018-11-23T08:05:01.957Z,17.00
2018-11-23T08:10:09.551Z,21.10
2018-11-23T08:15:15.994Z,18.20
2018-11-23T08:20:20.204Z,18.50
2018-11-23T08:25:24.256Z,18.03
2018-11-23T08:30:29.209Z,18.40
2018-11-23T08:35:32.371Z,17.47
2018-11-23T08:40:35.436Z,16.80
2018-11-23T08:45:38.536Z,16.87
2018-11-23T08:50:41.793Z,22.53
2018-11-23T08:55:44.936Z,18.67
2018-11-23T09:00:48.064Z,16.57
2018-11-23T09:05:51.166Z,15.77
2018-11-23T09:10:54.458Z,15.57
2018-11-23T09:15:57.608Z,14.87
2018-11-23T09:21:00.698Z,15.83
2018-11-23T09:26:03.818Z,16.10
2018-11-23T09:31:06.963Z,15.20
2018-11-23T09:36:10.298Z,16.23
2018-11-23T09:41:13.556Z,19.90
2018-11-23T09:46:17.858Z,14.80
2018-11-23T09:51:21.948Z,14.70
2018-11-23T09:56:26.001Z,14.23
2018-11-23T10:01:30.069Z,15.87
2018-11-23T10:06:34.452Z,15.63
2018-11-23T10:11:38.523Z,14.27
2018-11-23T10:16:42.853Z,16.53
2018-11-23T10:21:46.675Z,14.90
2018-11-23T10:26:50.877Z,15.37
2018-11-23T10:31:56.599Z,14.37
2018-11-23T10:37:00.334Z,14.73
2018-11-23T10:42:04.534Z,15.07
2018-11-23T10:47:07.879Z,14.77
2018-11-23T10:52:10.958Z,13.93
2018-11-23T10:57:14.030Z,16.40
2018-11-23T11:02:24.059Z,13.57
2018-11-23T11:07:27.441Z,13.40
2018-11-23T11:12:30.679Z,39.03
2018-11-23T11:17:34.959Z,12.20
2018-11-23T11:22:39.352Z,14.03
2018-11-23T11:34:39.436Z,14.37
2018-11-23T11:39:42.583Z,17.50
2018-11-23T11:44:45.673Z,15.30
2018-11-23T11:49:48.897Z,14.47
2018-11-23T11:54:52.152Z,14.30
2018-11-23T11:59:55.343Z,25.83
2018-11-23T12:04:58.583Z,15.00
2018-11-23T12:10:02.853Z,15.60
2018-11-23T12:15:08.332Z,15.20
2018-11-23T12:20:14.068Z,14.53
2018-11-23T12:25:17.597Z,14.43
2018-11-23T12:30:21.614Z,14.33
2018-11-23T12:35:24.704Z,13.80
2018-11-23T12:40:27.743Z,15.23
2018-11-23T12:45:30.780Z,14.57
2018-11-23T12:50:33.819Z,15.87
2018-11-23T12:55:36.878Z,15.83
2018-11-23T13:00:39.922Z,15.40
2018-11-23T13:05:42.939Z,14.90
2018-11-23T13:10:46.005Z,14.47
2018-11-23T13:15:49.108Z,13.93
2018-11-23T13:20:52.243Z,14.10
2018-11-23T13:25:55.314Z,18.13
2018-11-23T13:30:58.387Z,14.43
2018-11-23T13:36:01.458Z,13.70
2018-11-23T13:41:05.147Z,14.20
2018-11-23T13:46:08.427Z,14.30
2018-11-23T13:51:11.469Z,13.07
2018-11-23T13:56:14.528Z,13.60
2018-11-23T14:01:17.548Z,13.83
2018-11-23T14:17:38.154Z,13.83
2018-11-23T14:22:41.204Z,13.30
2018-11-23T14:27:44.705Z,14.17
2018-11-23T14:32:47.984Z,14.00
2018-11-23T14:37:51.985Z,13.67
2018-11-23T14:42:55.583Z,14.67
2018-11-23T14:48:02.036Z,15.00
2018-11-23T14:53:05.121Z,18.77
2018-11-23T14:58:14.879Z,16.03
2018-11-23T15:03:17.906Z,17.30
2018-11-23T15:08:20.990Z,17.53
2018-11-23T15:13:24.029Z,16.30
2018-11-23T15:18:27.094Z,25.40
2018-11-23T15:23:30.135Z,21.70
2018-11-23T15:28:33.210Z,20.87
2018-11-23T15:33:36.312Z,22.80
2018-11-23T15:38:39.484Z,20.77
2018-11-23T15:43:42.656Z,17.27
2018-11-23T15:48:45.695Z,17.60
2018-11-23T15:53:48.733Z,23.87
2018-11-23T15:58:51.806Z,15.40
2018-11-23T16:31:17.890Z,16.77
2018-11-23T16:36:21.018Z,18.00
2018-11-23T16:41:24.083Z,16.87
2018-11-23T16:46:27.172Z,17.77
2018-11-23T16:51:30.240Z,17.70
2018-11-23T16:56:33.340Z,16.90
2018-11-23T17:01:36.412Z,14.87
2018-11-23T17:06:39.451Z,17.47
2018-11-23T17:11:42.576Z,16.87
2018-11-23T17:16:45.662Z,18.23
2018-11-23T17:21:48.710Z,16.97
2018-11-23T17:26:51.912Z,16.07
2018-11-23T17:31:54.970Z,18.20
2018-11-23T17:36:58.042Z,17.43
2018-11-23T17:42:01.084Z,16.47
2018-11-23T17:47:04.198Z,16.33
2018-11-23T17:52:07.282Z,17.17
2018-11-23T17:57:10.373Z,18.27
2018-11-23T18:02:14.223Z,17.67
2018-11-23T18:07:17.315Z,17.20
2018-11-23T18:12:20.353Z,17.80
2018-11-23T18:17:23.510Z,18.67
2018-11-23T18:22:26.596Z,21.00
2018-11-23T18:27:29.795Z,15.27
2018-11-23T18:32:33.152Z,18.07
2018-11-23T18:37:36.203Z,17.67
2018-11-23T18:42:39.274Z,17.43
2018-11-23T18:47:43.343Z,18.43
2018-11-23T18:52:46.392Z,16.60
2018-11-23T18:57:50.069Z,18.40
2018-11-23T19:02:53.149Z,16.53
2018-11-23T19:07:56.225Z,17.67
2018-11-23T19:12:59.296Z,18.30
2018-11-23T19:18:02.518Z,15.43
2018-11-23T19:23:05.613Z,15.17
2018-11-23T19:28:08.741Z,17.40
2018-11-23T19:33:11.916Z,19.70
2018-11-23T19:38:14.958Z,16.90
2018-11-23T19:43:18.028Z,16.57
2018-11-23T19:48:21.069Z,16.73
2018-11-23T19:53:24.156Z,21.73
2018-11-23T19:58:27.221Z,26.00
2018-11-23T20:03:30.270Z,36.70
2018-11-23T20:08:33.372Z,52.67
2018-11-23T20:13:36.436Z,42.93
2018-11-23T20:18:39.659Z,22.90
2018-11-23T20:23:42.674Z,27.30
2018-11-23T20:28:45.751Z,18.43
2018-11-23T20:33:48.978Z,16.77
2018-11-23T20:38:52.042Z,16.50
2018-11-23T20:43:55.067Z,17.10
2018-11-23T20:48:58.127Z,16.30
2018-11-23T20:54:01.133Z,21.00
2018-11-23T20:59:04.335Z,18.30
2018-11-23T21:04:07.419Z,17.50
2018-11-23T21:09:10.544Z,15.87
2018-11-23T21:14:13.560Z,18.50
2018-11-23T21:19:16.595Z,16.47
2018-11-23T21:24:19.675Z,17.00
2018-11-23T21:29:22.748Z,17.80
2018-11-23T21:34:26.091Z,15.93
2018-11-23T21:39:29.139Z,16.20
2018-11-23T21:44:32.187Z,16.07
2018-11-23T21:49:35.223Z,17.00
2018-11-23T21:54:38.255Z,16.87
2018-11-23T21:59:41.296Z,17.97
2018-11-23T22:04:44.337Z,17.40
2018-11-23T22:09:47.381Z,18.30
2018-11-23T22:14:50.413Z,18.20
2018-11-23T22:19:53.427Z,17.33
2018-11-23T22:24:56.439Z,18.80
2018-11-23T22:29:59.496Z,16.80
2018-11-23T22:35:02.663Z,16.43
2018-11-23T22:40:12.115Z,15.90
2018-11-23T22:45:16.228Z,16.60
2018-11-23T22:50:20.946Z,16.23
2018-11-23T22:55:24.011Z,16.33
2018-11-23T23:00:32.842Z,17.00
2018-11-23T23:05:35.855Z,16.93
2018-11-23T23:10:38.868Z,16.97
2018-11-23T23:15:43.162Z,15.83
2018-11-23T23:20:44.965Z,16.37
2018-11-23T23:25:47.970Z,13.73
2018-11-23T23:30:50.999Z,13.70
2018-11-23T23:35:53.999Z,14.70
2018-11-23T23:40:57.028Z,13.50
2018-11-23T23:46:00.049Z,15.83
2018-11-23T23:51:03.088Z,11.73
2018-11-23T23:56:06.324Z,12.97
